sensor_id;sensor_type;location;lat;lon;timestamp;P1;durP1;ratioP1;P2;durP2;ratioP2
5553;SDS011;2800;49.528;8.666;2023-08-06T00:02:19;6.80;;;3.90;;
5553;SDS011;2800;49.528;8.666;2023-08-06T00:04:46;6.00;;;3.27;;
5553;SDS011;2800;49.528;8.666;2023-08-06T00:07:11;9.40;;;3.57;;
5553;SDS011;2800;49.528;8.666;2023-08-06T00:09:37;8.83;;;4.03;;
5553;SDS011;2800;49.528;8.666;2023-08-06T00:12:03;9.10;;;3.70;;
5553;SDS011;2800;49.528;8.666;2023-08-06T00:14:28;7.00;;;3.80;;
5553;SDS011;2800;49.528;8.666;2023-08-06T00:16:54;8.40;;;3.70;;
5553;SDS011;2800;49.528;8.666;2023-08-06T00:19:19;6.50;;;3.30;;
5553;SDS011;2800;49.528;8.666;2023-08-06T00:21:45;6.10;;;3.70;;
5553;SDS011;2800;49.528;8.666;2023-08-06T00:24:10;6.97;;;3.47;;
5553;SDS011;2800;49.528;8.666;2023-08-06T00:26:36;6.23;;;3.70;;
5553;SDS011;2800;49.528;8.666;2023-08-06T00:29:01;6.03;;;3.20;;
5553;SDS011;2800;49.528;8.666;2023-08-06T00:31:27;6.10;;;3.20;;
5553;SDS011;2800;49.528;8.666;2023-08-06T00:33:52;6.10;;;3.10;;
5553;SDS011;2800;49.528;8.666;2023-08-06T00:36:18;5.47;;;3.20;;
5553;SDS011;2800;49.528;8.666;2023-08-06T00:38:43;6.23;;;2.80;;
5553;SDS011;2800;49.528;8.666;2023-08-06T00:41:09;8.60;;;3.33;;
5553;SDS011;2800;49.528;8.666;2023-08-06T00:43:34;6.80;;;2.93;;
5553;SDS011;2800;49.528;8.666;2023-08-06T00:46:00;7.10;;;3.20;;
5553;SDS011;2800;49.528;8.666;2023-08-06T00:48:26;11.10;;;3.23;;
5553;SDS011;2800;49.528;8.666;2023-08-06T00:50:51;10.17;;;2.80;;
5553;SDS011;2800;49.528;8.666;2023-08-06T00:53:17;6.70;;;3.10;;
5553;SDS011;2800;49.528;8.666;2023-08-06T00:55:43;7.30;;;3.30;;
5553;SDS011;2800;49.528;8.666;2023-08-06T00:58:10;6.07;;;2.97;;
5553;SDS011;2800;49.528;8.666;2023-08-06T01:00:36;7.20;;;2.80;;
5553;SDS011;2800;49.528;8.666;2023-08-06T01:03:02;6.03;;;2.70;;
5553;SDS011;2800;49.528;8.666;2023-08-06T01:05:28;5.93;;;2.90;;
5553;SDS011;2800;49.528;8.666;2023-08-06T01:13:58;5.37;;;2.30;;
5553;SDS011;2800;49.528;8.666;2023-08-06T01:16:41;6.30;;;2.90;;
5553;SDS011;2800;49.528;8.666;2023-08-06T01:19:16;6.73;;;2.90;;
5553;SDS011;2800;49.528;8.666;2023-08-06T01:21:43;7.80;;;3.17;;
5553;SDS011;2800;49.528;8.666;2023-08-06T01:24:08;5.73;;;3.00;;
5553;SDS011;2800;49.528;8.666;2023-08-06T01:26:39;8.03;;;3.37;;
5553;SDS011;2800;49.528;8.666;2023-08-06T01:29:40;6.67;;;3.20;;
5553;SDS011;2800;49.528;8.666;2023-08-06T01:32:10;6.43;;;2.80;;
5553;SDS011;2800;49.528;8.666;2023-08-06T01:34:38;7.80;;;2.90;;
5553;SDS011;2800;49.528;8.666;2023-08-06T01:37:06;6.03;;;2.60;;
5553;SDS011;2800;49.528;8.666;2023-08-06T01:39:35;5.77;;;2.60;;
5553;SDS011;2800;49.528;8.666;2023-08-06T01:42:01;8.60;;;3.00;;
5553;SDS011;2800;49.528;8.666;2023-08-06T01:44:27;6.60;;;2.97;;
5553;SDS011;2800;49.528;8.666;2023-08-06T01:46:52;7.17;;;3.07;;
5553;SDS011;2800;49.528;8.666;2023-08-06T01:49:18;10.70;;;3.23;;
5553;SDS011;2800;49.528;8.666;2023-08-06T01:51:43;7.40;;;2.90;;
5553;SDS011;2800;49.528;8.666;2023-08-06T01:54:09;6.13;;;2.93;;
5553;SDS011;2800;49.528;8.666;2023-08-06T01:56:35;7.33;;;3.03;;
5553;SDS011;2800;49.528;8.666;2023-08-06T01:59:00;5.77;;;2.67;;
5553;SDS011;2800;49.528;8.666;2023-08-06T02:01:26;6.03;;;3.00;;
5553;SDS011;2800;49.528;8.666;2023-08-06T02:03:51;6.53;;;2.73;;
5553;SDS011;2800;49.528;8.666;2023-08-06T02:06:17;5.60;;;2.93;;
5553;SDS011;2800;49.528;8.666;2023-08-06T02:08:42;8.23;;;3.73;;
5553;SDS011;2800;49.528;8.666;2023-08-06T02:11:07;7.03;;;2.70;;
5553;SDS011;2800;49.528;8.666;2023-08-06T02:13:33;7.23;;;3.03;;
5553;SDS011;2800;49.528;8.666;2023-08-06T02:15:58;6.23;;;2.80;;
5553;SDS011;2800;49.528;8.666;2023-08-06T02:18:24;6.70;;;3.30;;
5553;SDS011;2800;49.528;8.666;2023-08-06T02:20:59;8.20;;;2.93;;
5553;SDS011;2800;49.528;8.666;2023-08-06T02:23:25;7.27;;;3.00;;
5553;SDS011;2800;49.528;8.666;2023-08-06T02:26:00;5.47;;;3.10;;
5553;SDS011;2800;49.528;8.666;2023-08-06T02:28:27;6.90;;;2.90;;
5553;SDS011;2800;49.528;8.666;2023-08-06T02:30:54;7.57;;;3.23;;
5553;SDS011;2800;49.528;8.666;2023-08-06T02:33:19;6.27;;;3.00;;
5553;SDS011;2800;49.528;8.666;2023-08-06T02:35:45;6.50;;;3.13;;
5553;SDS011;2800;49.528;8.666;2023-08-06T02:38:10;6.53;;;2.70;;
5553;SDS011;2800;49.528;8.666;2023-08-06T02:40:36;8.13;;;2.90;;
5553;SDS011;2800;49.528;8.666;2023-08-06T02:43:01;7.13;;;3.17;;
5553;SDS011;2800;49.528;8.666;2023-08-06T02:45:27;5.67;;;2.57;;
5553;SDS011;2800;49.528;8.666;2023-08-06T02:47:53;6.20;;;3.30;;
5553;SDS011;2800;49.528;8.666;2023-08-06T02:50:19;8.10;;;2.90;;
5553;SDS011;2800;49.528;8.666;2023-08-06T02:52:44;6.17;;;3.17;;
5553;SDS011;2800;49.528;8.666;2023-08-06T02:55:10;7.40;;;3.10;;
5553;SDS011;2800;49.528;8.666;2023-08-06T02:57:35;11.03;;;3.00;;
5553;SDS011;2800;49.528;8.666;2023-08-06T03:00:01;7.30;;;3.00;;
5553;SDS011;2800;49.528;8.666;2023-08-06T03:02:27;6.97;;;3.13;;
5553;SDS011;2800;49.528;8.666;2023-08-06T03:04:52;6.60;;;3.17;;
5553;SDS011;2800;49.528;8.666;2023-08-06T03:07:18;6.40;;;2.40;;
5553;SDS011;2800;49.528;8.666;2023-08-06T03:09:44;5.77;;;2.90;;
5553;SDS011;2800;49.528;8.666;2023-08-06T03:12:09;6.93;;;3.30;;
5553;SDS011;2800;49.528;8.666;2023-08-06T03:14:34;6.63;;;3.20;;
5553;SDS011;2800;49.528;8.666;2023-08-06T03:17:00;9.10;;;2.90;;
5553;SDS011;2800;49.528;8.666;2023-08-06T03:19:25;5.97;;;3.13;;
5553;SDS011;2800;49.528;8.666;2023-08-06T03:21:51;7.20;;;3.37;;
5553;SDS011;2800;49.528;8.666;2023-08-06T03:24:16;10.90;;;3.37;;
5553;SDS011;2800;49.528;8.666;2023-08-06T03:26:42;7.30;;;3.37;;
5553;SDS011;2800;49.528;8.666;2023-08-06T03:29:07;7.53;;;3.17;;
5553;SDS011;2800;49.528;8.666;2023-08-06T03:31:33;6.73;;;3.20;;
5553;SDS011;2800;49.528;8.666;2023-08-06T03:33:58;8.97;;;3.33;;
5553;SDS011;2800;49.528;8.666;2023-08-06T03:36:24;6.53;;;2.90;;
5553;SDS011;2800;49.528;8.666;2023-08-06T03:38:49;5.83;;;2.77;;
5553;SDS011;2800;49.528;8.666;2023-08-06T03:41:15;5.80;;;2.70;;
5553;SDS011;2800;49.528;8.666;2023-08-06T03:43:40;8.83;;;2.87;;
5553;SDS011;2800;49.528;8.666;2023-08-06T03:46:06;6.83;;;2.90;;
5553;SDS011;2800;49.528;8.666;2023-08-06T03:48:31;6.10;;;2.50;;
5553;SDS011;2800;49.528;8.666;2023-08-06T03:50:57;6.50;;;2.67;;
5553;SDS011;2800;49.528;8.666;2023-08-06T03:53:22;6.00;;;2.60;;
5553;SDS011;2800;49.528;8.666;2023-08-06T03:55:48;5.90;;;2.33;;
5553;SDS011;2800;49.528;8.666;2023-08-06T03:58:13;10.80;;;2.70;;
5553;SDS011;2800;49.528;8.666;2023-08-06T04:00:39;10.07;;;2.77;;
5553;SDS011;2800;49.528;8.666;2023-08-06T04:03:04;6.90;;;2.80;;
5553;SDS011;2800;49.528;8.666;2023-08-06T04:05:33;5.67;;;2.40;;
5553;SDS011;2800;49.528;8.666;2023-08-06T04:07:58;11.10;;;3.10;;
5553;SDS011;2800;49.528;8.666;2023-08-06T04:10:24;9.23;;;2.90;;
5553;SDS011;2800;49.528;8.666;2023-08-06T04:12:50;6.80;;;2.87;;
5553;SDS011;2800;49.528;8.666;2023-08-06T04:15:16;7.30;;;3.07;;
5553;SDS011;2800;49.528;8.666;2023-08-06T04:17:41;7.60;;;3.23;;
5553;SDS011;2800;49.528;8.666;2023-08-06T04:20:07;8.10;;;3.27;;
5553;SDS011;2800;49.528;8.666;2023-08-06T04:22:33;9.27;;;3.20;;
5553;SDS011;2800;49.528;8.666;2023-08-06T04:24:58;8.40;;;3.20;;
5553;SDS011;2800;49.528;8.666;2023-08-06T04:27:24;6.53;;;3.30;;
5553;SDS011;2800;49.528;8.666;2023-08-06T04:29:50;6.77;;;2.80;;
5553;SDS011;2800;49.528;8.666;2023-08-06T04:32:16;7.77;;;3.10;;
5553;SDS011;2800;49.528;8.666;2023-08-06T04:34:42;6.87;;;3.03;;
5553;SDS011;2800;49.528;8.666;2023-08-06T04:37:08;6.03;;;2.90;;
5553;SDS011;2800;49.528;8.666;2023-08-06T04:39:33;9.37;;;3.70;;
5553;SDS011;2800;49.528;8.666;2023-08-06T04:41:59;7.40;;;3.30;;
5553;SDS011;2800;49.528;8.666;2023-08-06T04:44:25;6.80;;;2.50;;
5553;SDS011;2800;49.528;8.666;2023-08-06T04:46:50;8.73;;;3.33;;
5553;SDS011;2800;49.528;8.666;2023-08-06T04:49:17;7.57;;;3.00;;
5553;SDS011;2800;49.528;8.666;2023-08-06T04:51:42;7.67;;;2.97;;
5553;SDS011;2800;49.528;8.666;2023-08-06T04:54:08;8.83;;;3.50;;
5553;SDS011;2800;49.528;8.666;2023-08-06T04:56:34;7.17;;;2.70;;
5553;SDS011;2800;49.528;8.666;2023-08-06T04:59:00;6.90;;;2.80;;
5553;SDS011;2800;49.528;8.666;2023-08-06T05:01:25;11.07;;;2.63;;
5553;SDS011;2800;49.528;8.666;2023-08-06T05:03:51;13.00;;;2.90;;
5553;SDS011;2800;49.528;8.666;2023-08-06T05:06:16;13.03;;;2.67;;
5553;SDS011;2800;49.528;8.666;2023-08-06T05:08:42;7.13;;;2.30;;
5553;SDS011;2800;49.528;8.666;2023-08-06T05:11:08;7.67;;;2.50;;
5553;SDS011;2800;49.528;8.666;2023-08-06T05:13:34;7.10;;;2.33;;
5553;SDS011;2800;49.528;8.666;2023-08-06T05:16:00;8.17;;;2.30;;
5553;SDS011;2800;49.528;8.666;2023-08-06T05:18:25;7.30;;;2.63;;
5553;SDS011;2800;49.528;8.666;2023-08-06T05:20:51;6.97;;;2.70;;
5553;SDS011;2800;49.528;8.666;2023-08-06T05:23:16;5.43;;;1.83;;
5553;SDS011;2800;49.528;8.666;2023-08-06T05:25:42;5.93;;;2.07;;
5553;SDS011;2800;49.528;8.666;2023-08-06T05:28:07;7.67;;;2.30;;
5553;SDS011;2800;49.528;8.666;2023-08-06T05:30:33;6.33;;;2.20;;
5553;SDS011;2800;49.528;8.666;2023-08-06T05:32:58;7.07;;;2.57;;
5553;SDS011;2800;49.528;8.666;2023-08-06T05:35:24;7.37;;;2.53;;
5553;SDS011;2800;49.528;8.666;2023-08-06T05:37:50;10.00;;;2.80;;
5553;SDS011;2800;49.528;8.666;2023-08-06T05:40:15;7.87;;;2.47;;
5553;SDS011;2800;49.528;8.666;2023-08-06T05:42:41;10.53;;;2.40;;
5553;SDS011;2800;49.528;8.666;2023-08-06T05:45:07;7.87;;;2.37;;
5553;SDS011;2800;49.528;8.666;2023-08-06T05:47:33;8.37;;;2.30;;
5553;SDS011;2800;49.528;8.666;2023-08-06T05:49:58;10.43;;;2.63;;
5553;SDS011;2800;49.528;8.666;2023-08-06T05:52:24;7.77;;;2.90;;
5553;SDS011;2800;49.528;8.666;2023-08-06T05:54:50;9.80;;;2.50;;
5553;SDS011;2800;49.528;8.666;2023-08-06T05:57:16;8.30;;;2.60;;
5553;SDS011;2800;49.528;8.666;2023-08-06T05:59:42;6.80;;;2.27;;
5553;SDS011;2800;49.528;8.666;2023-08-06T06:02:07;6.10;;;2.30;;
5553;SDS011;2800;49.528;8.666;2023-08-06T06:04:33;6.80;;;2.43;;
5553;SDS011;2800;49.528;8.666;2023-08-06T06:06:59;7.60;;;2.70;;
5553;SDS011;2800;49.528;8.666;2023-08-06T06:09:24;8.93;;;2.53;;
5553;SDS011;2800;49.528;8.666;2023-08-06T06:11:50;8.07;;;2.67;;
5553;SDS011;2800;49.528;8.666;2023-08-06T06:14:18;9.57;;;2.73;;
5553;SDS011;2800;49.528;8.666;2023-08-06T06:16:44;9.53;;;3.00;;
5553;SDS011;2800;49.528;8.666;2023-08-06T06:19:10;8.30;;;2.73;;
5553;SDS011;2800;49.528;8.666;2023-08-06T06:21:36;9.00;;;2.77;;
5553;SDS011;2800;49.528;8.666;2023-08-06T06:24:03;10.43;;;2.43;;
5553;SDS011;2800;49.528;8.666;2023-08-06T06:26:30;13.43;;;3.20;;
5553;SDS011;2800;49.528;8.666;2023-08-06T06:28:55;8.27;;;2.77;;
5553;SDS011;2800;49.528;8.666;2023-08-06T06:31:21;9.93;;;2.60;;
5553;SDS011;2800;49.528;8.666;2023-08-06T06:33:47;13.47;;;3.00;;
5553;SDS011;2800;49.528;8.666;2023-08-06T06:36:12;8.80;;;2.67;;
5553;SDS011;2800;49.528;8.666;2023-08-06T06:38:38;9.63;;;2.33;;
5553;SDS011;2800;49.528;8.666;2023-08-06T06:41:03;13.53;;;2.90;;
5553;SDS011;2800;49.528;8.666;2023-08-06T06:43:29;8.40;;;2.50;;
5553;SDS011;2800;49.528;8.666;2023-08-06T06:45:58;11.90;;;2.63;;
5553;SDS011;2800;49.528;8.666;2023-08-06T06:48:28;7.10;;;2.40;;
5553;SDS011;2800;49.528;8.666;2023-08-06T06:50:54;10.20;;;2.93;;
5553;SDS011;2800;49.528;8.666;2023-08-06T06:53:20;7.70;;;2.40;;
5553;SDS011;2800;49.528;8.666;2023-08-06T06:55:51;8.73;;;2.20;;
5553;SDS011;2800;49.528;8.666;2023-08-06T06:58:18;13.57;;;2.33;;
5553;SDS011;2800;49.528;8.666;2023-08-06T07:00:43;12.47;;;2.30;;
5553;SDS011;2800;49.528;8.666;2023-08-06T07:03:09;7.63;;;2.20;;
5553;SDS011;2800;49.528;8.666;2023-08-06T07:05:34;10.17;;;2.43;;
5553;SDS011;2800;49.528;8.666;2023-08-06T07:08:00;7.60;;;2.20;;
5553;SDS011;2800;49.528;8.666;2023-08-06T07:10:25;5.93;;;1.83;;
5553;SDS011;2800;49.528;8.666;2023-08-06T07:12:51;7.60;;;2.67;;
5553;SDS011;2800;49.528;8.666;2023-08-06T07:15:16;9.30;;;2.20;;
5553;SDS011;2800;49.528;8.666;2023-08-06T07:17:42;8.30;;;2.77;;
5553;SDS011;2800;49.528;8.666;2023-08-06T07:20:08;6.40;;;1.70;;
5553;SDS011;2800;49.528;8.666;2023-08-06T07:22:34;8.20;;;2.00;;
5553;SDS011;2800;49.528;8.666;2023-08-06T07:24:59;5.73;;;1.70;;
5553;SDS011;2800;49.528;8.666;2023-08-06T07:27:25;6.50;;;1.50;;
5553;SDS011;2800;49.528;8.666;2023-08-06T07:29:50;8.73;;;2.00;;
5553;SDS011;2800;49.528;8.666;2023-08-06T07:32:16;6.73;;;2.00;;
5553;SDS011;2800;49.528;8.666;2023-08-06T07:34:41;5.17;;;1.73;;
5553;SDS011;2800;49.528;8.666;2023-08-06T07:37:07;7.00;;;1.90;;
5553;SDS011;2800;49.528;8.666;2023-08-06T07:39:32;7.37;;;1.57;;
5553;SDS011;2800;49.528;8.666;2023-08-06T07:41:58;7.40;;;1.70;;
5553;SDS011;2800;49.528;8.666;2023-08-06T07:44:23;4.73;;;1.47;;
5553;SDS011;2800;49.528;8.666;2023-08-06T07:46:49;6.30;;;1.70;;
5553;SDS011;2800;49.528;8.666;2023-08-06T07:49:15;6.87;;;2.10;;
5553;SDS011;2800;49.528;8.666;2023-08-06T07:51:40;6.90;;;1.50;;
5553;SDS011;2800;49.528;8.666;2023-08-06T07:54:06;6.63;;;1.33;;
5553;SDS011;2800;49.528;8.666;2023-08-06T07:56:32;4.60;;;1.30;;
5553;SDS011;2800;49.528;8.666;2023-08-06T07:58:57;4.00;;;1.10;;
5553;SDS011;2800;49.528;8.666;2023-08-06T08:01:23;5.03;;;1.30;;
5553;SDS011;2800;49.528;8.666;2023-08-06T08:03:48;4.90;;;1.33;;
5553;SDS011;2800;49.528;8.666;2023-08-06T08:06:14;4.83;;;1.20;;
5553;SDS011;2800;49.528;8.666;2023-08-06T08:08:39;5.33;;;1.27;;
5553;SDS011;2800;49.528;8.666;2023-08-06T08:11:05;4.57;;;1.57;;
5553;SDS011;2800;49.528;8.666;2023-08-06T08:13:31;4.53;;;1.10;;
5553;SDS011;2800;49.528;8.666;2023-08-06T08:15:59;4.73;;;1.27;;
5553;SDS011;2800;49.528;8.666;2023-08-06T08:18:25;5.67;;;2.17;;
5553;SDS011;2800;49.528;8.666;2023-08-06T08:20:51;4.20;;;1.10;;
5553;SDS011;2800;49.528;8.666;2023-08-06T08:23:17;4.30;;;1.37;;
5553;SDS011;2800;49.528;8.666;2023-08-06T08:25:42;5.80;;;1.40;;
5553;SDS011;2800;49.528;8.666;2023-08-06T08:28:08;4.93;;;1.30;;
5553;SDS011;2800;49.528;8.666;2023-08-06T08:30:33;6.10;;;1.37;;
5553;SDS011;2800;49.528;8.666;2023-08-06T08:32:59;3.93;;;1.30;;
5553;SDS011;2800;49.528;8.666;2023-08-06T08:35:25;5.40;;;1.50;;
5553;SDS011;2800;49.528;8.666;2023-08-06T08:37:50;6.43;;;1.43;;
5553;SDS011;2800;49.528;8.666;2023-08-06T08:40:16;4.13;;;1.40;;
5553;SDS011;2800;49.528;8.666;2023-08-06T08:42:42;4.97;;;1.30;;
5553;SDS011;2800;49.528;8.666;2023-08-06T08:45:12;4.80;;;1.30;;
5553;SDS011;2800;49.528;8.666;2023-08-06T08:47:42;4.93;;;1.60;;
5553;SDS011;2800;49.528;8.666;2023-08-06T08:50:08;5.20;;;1.30;;
5553;SDS011;2800;49.528;8.666;2023-08-06T08:52:36;3.93;;;1.20;;
5553;SDS011;2800;49.528;8.666;2023-08-06T08:55:03;3.53;;;1.00;;
5553;SDS011;2800;49.528;8.666;2023-08-06T08:57:29;5.83;;;1.17;;
5553;SDS011;2800;49.528;8.666;2023-08-06T08:59:55;5.40;;;1.20;;
5553;SDS011;2800;49.528;8.666;2023-08-06T09:02:21;4.10;;;1.30;;
5553;SDS011;2800;49.528;8.666;2023-08-06T09:04:48;3.37;;;0.97;;
5553;SDS011;2800;49.528;8.666;2023-08-06T09:07:16;4.70;;;1.23;;
5553;SDS011;2800;49.528;8.666;2023-08-06T09:09:45;4.40;;;1.17;;
5553;SDS011;2800;49.528;8.666;2023-08-06T09:12:16;4.10;;;1.60;;
5553;SDS011;2800;49.528;8.666;2023-08-06T09:14:42;3.57;;;1.03;;
5553;SDS011;2800;49.528;8.666;2023-08-06T09:17:08;5.57;;;1.50;;
5553;SDS011;2800;49.528;8.666;2023-08-06T09:19:35;3.60;;;1.00;;
5553;SDS011;2800;49.528;8.666;2023-08-06T09:22:01;3.80;;;1.10;;
5553;SDS011;2800;49.528;8.666;2023-08-06T09:24:27;4.53;;;1.10;;
5553;SDS011;2800;49.528;8.666;2023-08-06T09:26:53;3.50;;;1.00;;
5553;SDS011;2800;49.528;8.666;2023-08-06T09:29:19;4.10;;;1.17;;
5553;SDS011;2800;49.528;8.666;2023-08-06T09:31:48;4.70;;;1.23;;
5553;SDS011;2800;49.528;8.666;2023-08-06T09:34:17;4.10;;;1.33;;
5553;SDS011;2800;49.528;8.666;2023-08-06T09:36:48;5.83;;;1.37;;
5553;SDS011;2800;49.528;8.666;2023-08-06T09:39:19;5.07;;;1.30;;
5553;SDS011;2800;49.528;8.666;2023-08-06T09:41:46;5.27;;;1.40;;
5553;SDS011;2800;49.528;8.666;2023-08-06T09:44:15;3.90;;;1.10;;
5553;SDS011;2800;49.528;8.666;2023-08-06T09:46:48;5.00;;;1.13;;
5553;SDS011;2800;49.528;8.666;2023-08-06T09:49:14;4.57;;;1.10;;
5553;SDS011;2800;49.528;8.666;2023-08-06T09:51:43;4.60;;;1.13;;
5553;SDS011;2800;49.528;8.666;2023-08-06T09:54:11;3.50;;;1.00;;
5553;SDS011;2800;49.528;8.666;2023-08-06T09:56:38;4.37;;;1.17;;
5553;SDS011;2800;49.528;8.666;2023-08-06T09:59:05;3.90;;;1.17;;
5553;SDS011;2800;49.528;8.666;2023-08-06T10:01:32;3.60;;;1.03;;
5553;SDS011;2800;49.528;8.666;2023-08-06T10:03:59;4.60;;;1.43;;
5553;SDS011;2800;49.528;8.666;2023-08-06T10:06:26;4.10;;;1.13;;
5553;SDS011;2800;49.528;8.666;2023-08-06T10:08:53;3.60;;;1.00;;
5553;SDS011;2800;49.528;8.666;2023-08-06T10:11:18;3.70;;;1.00;;
5553;SDS011;2800;49.528;8.666;2023-08-06T10:13:50;3.70;;;1.07;;
5553;SDS011;2800;49.528;8.666;2023-08-06T10:16:20;3.80;;;1.10;;
5553;SDS011;2800;49.528;8.666;2023-08-06T10:18:47;3.57;;;1.10;;
5553;SDS011;2800;49.528;8.666;2023-08-06T10:21:14;3.70;;;1.10;;
5553;SDS011;2800;49.528;8.666;2023-08-06T10:23:41;4.10;;;1.20;;
5553;SDS011;2800;49.528;8.666;2023-08-06T10:26:06;3.93;;;1.10;;
5553;SDS011;2800;49.528;8.666;2023-08-06T10:28:38;3.90;;;1.10;;
5553;SDS011;2800;49.528;8.666;2023-08-06T10:31:04;3.30;;;0.90;;
5553;SDS011;2800;49.528;8.666;2023-08-06T10:33:44;9.00;;;1.00;;
5553;SDS011;2800;49.528;8.666;2023-08-06T10:36:10;3.70;;;1.00;;
5553;SDS011;2800;49.528;8.666;2023-08-06T10:38:49;3.70;;;0.90;;
5553;SDS011;2800;49.528;8.666;2023-08-06T10:41:28;3.80;;;0.90;;
5553;SDS011;2800;49.528;8.666;2023-08-06T10:44:06;3.40;;;0.87;;
5553;SDS011;2800;49.528;8.666;2023-08-06T10:46:33;4.13;;;0.90;;
5553;SDS011;2800;49.528;8.666;2023-08-06T10:48:59;3.43;;;0.90;;
5553;SDS011;2800;49.528;8.666;2023-08-06T10:51:25;3.80;;;0.90;;
5553;SDS011;2800;49.528;8.666;2023-08-06T10:53:50;5.10;;;1.60;;
5553;SDS011;2800;49.528;8.666;2023-08-06T10:56:17;3.40;;;0.90;;
5553;SDS011;2800;49.528;8.666;2023-08-06T10:58:46;3.60;;;1.00;;
5553;SDS011;2800;49.528;8.666;2023-08-06T11:01:12;3.93;;;0.90;;
5553;SDS011;2800;49.528;8.666;2023-08-06T11:03:38;3.70;;;1.10;;
5553;SDS011;2800;49.528;8.666;2023-08-06T11:06:06;3.50;;;1.20;;
5553;SDS011;2800;49.528;8.666;2023-08-06T11:08:38;3.87;;;1.10;;
5553;SDS011;2800;49.528;8.666;2023-08-06T11:11:09;3.97;;;1.00;;
5553;SDS011;2800;49.528;8.666;2023-08-06T11:13:38;3.80;;;1.17;;
5553;SDS011;2800;49.528;8.666;2023-08-06T11:16:08;3.47;;;1.00;;
5553;SDS011;2800;49.528;8.666;2023-08-06T11:18:35;4.50;;;1.10;;
5553;SDS011;2800;49.528;8.666;2023-08-06T11:21:01;3.70;;;1.03;;
5553;SDS011;2800;49.528;8.666;2023-08-06T11:23:27;7.00;;;1.10;;
5553;SDS011;2800;49.528;8.666;2023-08-06T11:25:56;3.90;;;1.10;;
5553;SDS011;2800;49.528;8.666;2023-08-06T11:28:22;3.90;;;1.10;;
5553;SDS011;2800;49.528;8.666;2023-08-06T11:30:49;3.53;;;1.10;;
5553;SDS011;2800;49.528;8.666;2023-08-06T11:33:24;3.80;;;1.20;;
5553;SDS011;2800;49.528;8.666;2023-08-06T11:35:52;3.90;;;1.20;;
5553;SDS011;2800;49.528;8.666;2023-08-06T11:38:19;3.80;;;1.10;;
5553;SDS011;2800;49.528;8.666;2023-08-06T11:40:45;3.87;;;1.17;;
5553;SDS011;2800;49.528;8.666;2023-08-06T11:43:11;3.70;;;1.17;;
5553;SDS011;2800;49.528;8.666;2023-08-06T11:45:37;3.50;;;0.90;;
5553;SDS011;2800;49.528;8.666;2023-08-06T11:48:03;3.60;;;1.10;;
5553;SDS011;2800;49.528;8.666;2023-08-06T11:50:30;5.87;;;1.33;;
5553;SDS011;2800;49.528;8.666;2023-08-06T11:52:56;3.70;;;1.13;;
5553;SDS011;2800;49.528;8.666;2023-08-06T11:55:23;3.60;;;1.00;;
5553;SDS011;2800;49.528;8.666;2023-08-06T11:57:49;3.90;;;1.20;;
5553;SDS011;2800;49.528;8.666;2023-08-06T12:00:15;11.10;;;1.20;;
5553;SDS011;2800;49.528;8.666;2023-08-06T12:02:43;6.00;;;1.17;;
5553;SDS011;2800;49.528;8.666;2023-08-06T12:05:13;3.90;;;1.30;;
5553;SDS011;2800;49.528;8.666;2023-08-06T12:07:40;3.90;;;1.27;;
5553;SDS011;2800;49.528;8.666;2023-08-06T12:10:08;3.50;;;1.10;;
5553;SDS011;2800;49.528;8.666;2023-08-06T12:12:34;5.53;;;1.20;;
5553;SDS011;2800;49.528;8.666;2023-08-06T12:15:00;3.60;;;1.10;;
5553;SDS011;2800;49.528;8.666;2023-08-06T12:17:26;4.87;;;1.10;;
5553;SDS011;2800;49.528;8.666;2023-08-06T12:19:51;4.53;;;1.37;;
5553;SDS011;2800;49.528;8.666;2023-08-06T12:22:17;4.50;;;1.30;;
5553;SDS011;2800;49.528;8.666;2023-08-06T12:24:43;3.97;;;1.40;;
5553;SDS011;2800;49.528;8.666;2023-08-06T12:27:10;3.87;;;1.40;;
5553;SDS011;2800;49.528;8.666;2023-08-06T12:29:37;5.87;;;1.40;;
5553;SDS011;2800;49.528;8.666;2023-08-06T12:32:06;5.40;;;1.60;;
5553;SDS011;2800;49.528;8.666;2023-08-06T12:34:32;4.07;;;1.47;;
5553;SDS011;2800;49.528;8.666;2023-08-06T12:36:57;3.90;;;1.50;;
5553;SDS011;2800;49.528;8.666;2023-08-06T12:39:23;4.63;;;1.50;;
5553;SDS011;2800;49.528;8.666;2023-08-06T12:41:48;4.20;;;1.60;;
5553;SDS011;2800;49.528;8.666;2023-08-06T12:44:14;4.20;;;1.67;;
5553;SDS011;2800;49.528;8.666;2023-08-06T12:46:40;3.80;;;1.50;;
5553;SDS011;2800;49.528;8.666;2023-08-06T12:49:05;9.70;;;2.00;;
5553;SDS011;2800;49.528;8.666;2023-08-06T12:51:31;6.60;;;1.80;;
5553;SDS011;2800;49.528;8.666;2023-08-06T12:53:58;4.87;;;1.83;;
5553;SDS011;2800;49.528;8.666;2023-08-06T12:56:24;5.07;;;1.87;;
5553;SDS011;2800;49.528;8.666;2023-08-06T12:58:49;5.07;;;1.80;;
5553;SDS011;2800;49.528;8.666;2023-08-06T13:01:15;4.17;;;1.50;;
5553;SDS011;2800;49.528;8.666;2023-08-06T13:03:40;4.50;;;1.50;;
5553;SDS011;2800;49.528;8.666;2023-08-06T13:06:06;4.40;;;1.53;;
5553;SDS011;2800;49.528;8.666;2023-08-06T13:08:32;6.00;;;1.50;;
5553;SDS011;2800;49.528;8.666;2023-08-06T13:10:58;5.17;;;1.50;;
5553;SDS011;2800;49.528;8.666;2023-08-06T13:13:23;4.00;;;1.60;;
5553;SDS011;2800;49.528;8.666;2023-08-06T13:15:51;4.73;;;1.60;;
5553;SDS011;2800;49.528;8.666;2023-08-06T13:18:17;7.13;;;1.90;;
5553;SDS011;2800;49.528;8.666;2023-08-06T13:20:43;4.50;;;1.47;;
5553;SDS011;2800;49.528;8.666;2023-08-06T13:23:08;4.23;;;1.60;;
5553;SDS011;2800;49.528;8.666;2023-08-06T13:25:34;4.93;;;1.60;;
5553;SDS011;2800;49.528;8.666;2023-08-06T13:28:02;4.90;;;1.90;;
5553;SDS011;2800;49.528;8.666;2023-08-06T13:30:28;4.30;;;1.47;;
5553;SDS011;2800;49.528;8.666;2023-08-06T13:32:53;5.40;;;1.60;;
5553;SDS011;2800;49.528;8.666;2023-08-06T13:35:21;4.50;;;1.30;;
5553;SDS011;2800;49.528;8.666;2023-08-06T13:37:47;5.10;;;1.50;;
5553;SDS011;2800;49.528;8.666;2023-08-06T13:40:13;4.53;;;1.47;;
5553;SDS011;2800;49.528;8.666;2023-08-06T13:42:38;4.00;;;1.20;;
5553;SDS011;2800;49.528;8.666;2023-08-06T13:45:04;5.27;;;1.47;;
5553;SDS011;2800;49.528;8.666;2023-08-06T13:47:31;4.07;;;1.20;;
5553;SDS011;2800;49.528;8.666;2023-08-06T13:49:56;5.27;;;1.40;;
5553;SDS011;2800;49.528;8.666;2023-08-06T13:52:22;3.93;;;1.53;;
5553;SDS011;2800;49.528;8.666;2023-08-06T13:54:47;3.90;;;1.20;;
5553;SDS011;2800;49.528;8.666;2023-08-06T13:57:13;4.37;;;1.33;;
5553;SDS011;2800;49.528;8.666;2023-08-06T13:59:39;4.10;;;1.50;;
5553;SDS011;2800;49.528;8.666;2023-08-06T14:02:04;5.10;;;1.40;;
5553;SDS011;2800;49.528;8.666;2023-08-06T14:04:30;4.40;;;1.43;;
5553;SDS011;2800;49.528;8.666;2023-08-06T14:06:55;5.13;;;1.30;;
5553;SDS011;2800;49.528;8.666;2023-08-06T14:09:21;7.60;;;1.80;;
5553;SDS011;2800;49.528;8.666;2023-08-06T14:11:46;4.63;;;1.37;;
5553;SDS011;2800;49.528;8.666;2023-08-06T14:14:12;4.00;;;1.20;;
5553;SDS011;2800;49.528;8.666;2023-08-06T14:16:37;4.40;;;1.47;;
5553;SDS011;2800;49.528;8.666;2023-08-06T14:19:03;4.43;;;1.40;;
5553;SDS011;2800;49.528;8.666;2023-08-06T14:21:28;4.97;;;1.40;;
5553;SDS011;2800;49.528;8.666;2023-08-06T14:23:54;5.27;;;1.47;;
5553;SDS011;2800;49.528;8.666;2023-08-06T14:26:20;4.70;;;1.50;;
5553;SDS011;2800;49.528;8.666;2023-08-06T14:28:45;4.63;;;1.30;;
5553;SDS011;2800;49.528;8.666;2023-08-06T14:31:11;4.30;;;1.40;;
5553;SDS011;2800;49.528;8.666;2023-08-06T14:33:37;4.23;;;1.30;;
5553;SDS011;2800;49.528;8.666;2023-08-06T14:36:02;5.00;;;1.73;;
5553;SDS011;2800;49.528;8.666;2023-08-06T14:38:28;3.97;;;1.43;;
5553;SDS011;2800;49.528;8.666;2023-08-06T14:40:54;6.13;;;1.50;;
5553;SDS011;2800;49.528;8.666;2023-08-06T14:43:19;4.50;;;1.40;;
5553;SDS011;2800;49.528;8.666;2023-08-06T14:45:45;4.37;;;1.70;;
5553;SDS011;2800;49.528;8.666;2023-08-06T14:48:10;6.50;;;2.60;;
5553;SDS011;2800;49.528;8.666;2023-08-06T14:50:36;4.27;;;1.70;;
5553;SDS011;2800;49.528;8.666;2023-08-06T14:53:04;5.73;;;1.30;;
5553;SDS011;2800;49.528;8.666;2023-08-06T14:55:30;4.50;;;1.40;;
5553;SDS011;2800;49.528;8.666;2023-08-06T14:57:56;4.60;;;1.30;;
5553;SDS011;2800;49.528;8.666;2023-08-06T15:00:21;3.90;;;1.30;;
5553;SDS011;2800;49.528;8.666;2023-08-06T15:02:47;3.70;;;1.20;;
5553;SDS011;2800;49.528;8.666;2023-08-06T15:05:13;5.53;;;1.60;;
5553;SDS011;2800;49.528;8.666;2023-08-06T15:07:38;5.07;;;1.50;;
5553;SDS011;2800;49.528;8.666;2023-08-06T15:10:04;5.50;;;1.97;;
5553;SDS011;2800;49.528;8.666;2023-08-06T15:12:31;4.20;;;1.30;;
5553;SDS011;2800;49.528;8.666;2023-08-06T15:14:57;5.13;;;1.70;;
5553;SDS011;2800;49.528;8.666;2023-08-06T15:17:23;4.73;;;1.47;;